sensor_id;sensor_type;location;lat;lon;timestamp;P1;durP1;ratioP1;P2;durP2;ratioP2
60243;SDS011;46106;51.468;5.814;2023-11-21T00:01:53;39.78;;;19.90;;
60243;SDS011;46106;51.468;5.814;2023-11-21T00:04:19;37.35;;;20.23;;
60243;SDS011;46106;51.468;5.814;2023-11-21T00:06:45;40.25;;;19.60;;
60243;SDS011;46106;51.468;5.814;2023-11-21T00:09:12;44.33;;;20.67;;
60243;SDS011;46106;51.468;5.814;2023-11-21T00:11:40;38.22;;;18.27;;
60243;SDS011;46106;51.468;5.814;2023-11-21T00:14:06;37.67;;;19.20;;
60243;SDS011;46106;51.468;5.814;2023-11-21T00:16:31;49.10;;;21.23;;
60243;SDS011;46106;51.468;5.814;2023-11-21T00:18:57;39.65;;;19.38;;
60243;SDS011;46106;51.468;5.814;2023-11-21T00:21:22;44.90;;;19.77;;
60243;SDS011;46106;51.468;5.814;2023-11-21T00:23:48;46.40;;;20.27;;
60243;SDS011;46106;51.468;5.814;2023-11-21T00:26:13;47.22;;;20.00;;
60243;SDS011;46106;51.468;5.814;2023-11-21T00:28:39;46.92;;;20.73;;
60243;SDS011;46106;51.468;5.814;2023-11-21T00:31:05;51.00;;;21.50;;
60243;SDS011;46106;51.468;5.814;2023-11-21T00:33:30;55.45;;;21.85;;
60243;SDS011;46106;51.468;5.814;2023-11-21T00:35:57;55.95;;;22.58;;
60243;SDS011;46106;51.468;5.814;2023-11-21T00:38:22;55.22;;;22.15;;
60243;SDS011;46106;51.468;5.814;2023-11-21T00:40:48;55.65;;;22.52;;
60243;SDS011;46106;51.468;5.814;2023-11-21T00:43:13;48.45;;;22.88;;
60243;SDS011;46106;51.468;5.814;2023-11-21T00:45:38;54.55;;;22.60;;
60243;SDS011;46106;51.468;5.814;2023-11-21T00:48:05;49.90;;;22.13;;
60243;SDS011;46106;51.468;5.814;2023-11-21T00:50:30;48.67;;;22.90;;
60243;SDS011;46106;51.468;5.814;2023-11-21T00:52:56;54.78;;;22.38;;
60243;SDS011;46106;51.468;5.814;2023-11-21T00:55:22;43.45;;;21.98;;
60243;SDS011;46106;51.468;5.814;2023-11-21T00:57:48;46.50;;;21.80;;
60243;SDS011;46106;51.468;5.814;2023-11-21T01:00:13;45.92;;;21.88;;
60243;SDS011;46106;51.468;5.814;2023-11-21T01:02:42;56.50;;;22.25;;
60243;SDS011;46106;51.468;5.814;2023-11-21T01:05:10;50.30;;;22.23;;
60243;SDS011;46106;51.468;5.814;2023-11-21T01:07:36;51.53;;;22.15;;
60243;SDS011;46106;51.468;5.814;2023-11-21T01:10:02;46.22;;;22.65;;
60243;SDS011;46106;51.468;5.814;2023-11-21T01:12:36;61.00;;;23.65;;
60243;SDS011;46106;51.468;5.814;2023-11-21T01:15:03;62.97;;;23.98;;
60243;SDS011;46106;51.468;5.814;2023-11-21T01:17:32;59.10;;;23.20;;
60243;SDS011;46106;51.468;5.814;2023-11-21T01:19:59;50.85;;;23.10;;
60243;SDS011;46106;51.468;5.814;2023-11-21T01:22:25;56.83;;;23.38;;
60243;SDS011;46106;51.468;5.814;2023-11-21T01:24:51;59.30;;;21.63;;
60243;SDS011;46106;51.468;5.814;2023-11-21T01:27:18;50.55;;;22.77;;
60243;SDS011;46106;51.468;5.814;2023-11-21T01:29:43;58.72;;;22.63;;
60243;SDS011;46106;51.468;5.814;2023-11-21T01:32:09;50.42;;;22.42;;
60243;SDS011;46106;51.468;5.814;2023-11-21T01:34:36;54.75;;;22.73;;
60243;SDS011;46106;51.468;5.814;2023-11-21T01:37:02;54.20;;;22.67;;
60243;SDS011;46106;51.468;5.814;2023-11-21T01:39:30;57.05;;;23.63;;
60243;SDS011;46106;51.468;5.814;2023-11-21T01:41:57;54.35;;;23.10;;
60243;SDS011;46106;51.468;5.814;2023-11-21T01:44:26;53.92;;;22.15;;
60243;SDS011;46106;51.468;5.814;2023-11-21T01:46:52;54.42;;;21.88;;
60243;SDS011;46106;51.468;5.814;2023-11-21T01:49:20;50.80;;;21.42;;
60243;SDS011;46106;51.468;5.814;2023-11-21T01:51:47;53.55;;;23.02;;
60243;SDS011;46106;51.468;5.814;2023-11-21T01:54:15;57.30;;;22.60;;
60243;SDS011;46106;51.468;5.814;2023-11-21T01:56:42;59.97;;;22.08;;
60243;SDS011;46106;51.468;5.814;2023-11-21T01:59:12;61.45;;;23.85;;
60243;SDS011;46106;51.468;5.814;2023-11-21T02:01:41;60.58;;;23.00;;
60243;SDS011;46106;51.468;5.814;2023-11-21T02:04:06;51.40;;;21.23;;
60243;SDS011;46106;51.468;5.814;2023-11-21T02:06:33;51.63;;;22.50;;
60243;SDS011;46106;51.468;5.814;2023-11-21T02:08:59;55.53;;;23.23;;
60243;SDS011;46106;51.468;5.814;2023-11-21T02:11:24;61.67;;;22.55;;
60243;SDS011;46106;51.468;5.814;2023-11-21T02:13:50;62.72;;;23.02;;
60243;SDS011;46106;51.468;5.814;2023-11-21T02:16:19;57.95;;;22.52;;
60243;SDS011;46106;51.468;5.814;2023-11-21T02:18:46;50.45;;;22.40;;
60243;SDS011;46106;51.468;5.814;2023-11-21T02:21:17;48.67;;;21.60;;
60243;SDS011;46106;51.468;5.814;2023-11-21T02:23:44;64.55;;;22.85;;
60243;SDS011;46106;51.468;5.814;2023-11-21T02:26:13;54.90;;;21.65;;
60243;SDS011;46106;51.468;5.814;2023-11-21T02:28:39;68.43;;;22.20;;
60243;SDS011;46106;51.468;5.814;2023-11-21T02:31:05;58.47;;;22.73;;
60243;SDS011;46106;51.468;5.814;2023-11-21T02:33:30;85.60;;;24.05;;
60243;SDS011;46106;51.468;5.814;2023-11-21T02:35:59;74.20;;;25.23;;
60243;SDS011;46106;51.468;5.814;2023-11-21T02:38:25;82.85;;;25.92;;
60243;SDS011;46106;51.468;5.814;2023-11-21T02:40:51;76.97;;;25.30;;
60243;SDS011;46106;51.468;5.814;2023-11-21T02:43:16;80.38;;;25.85;;
60243;SDS011;46106;51.468;5.814;2023-11-21T02:45:42;77.50;;;24.20;;
60243;SDS011;46106;51.468;5.814;2023-11-21T02:48:07;86.45;;;26.13;;
60243;SDS011;46106;51.468;5.814;2023-11-21T02:50:32;83.97;;;25.17;;
60243;SDS011;46106;51.468;5.814;2023-11-21T02:53:00;75.93;;;25.23;;
60243;SDS011;46106;51.468;5.814;2023-11-21T02:55:26;98.35;;;27.90;;
60243;SDS011;46106;51.468;5.814;2023-11-21T02:57:52;121.60;;;27.30;;
60243;SDS011;46106;51.468;5.814;2023-11-21T03:00:17;119.85;;;30.88;;
60243;SDS011;46106;51.468;5.814;2023-11-21T03:02:43;114.90;;;28.17;;
60243;SDS011;46106;51.468;5.814;2023-11-21T03:05:09;189.75;;;31.13;;
60243;SDS011;46106;51.468;5.814;2023-11-21T03:07:35;140.07;;;28.65;;
60243;SDS011;46106;51.468;5.814;2023-11-21T03:10:05;180.25;;;29.63;;
60243;SDS011;46106;51.468;5.814;2023-11-21T03:12:35;173.57;;;30.30;;
60243;SDS011;46106;51.468;5.814;2023-11-21T03:15:01;142.90;;;28.90;;
60243;SDS011;46106;51.468;5.814;2023-11-21T03:17:27;154.50;;;31.25;;
60243;SDS011;46106;51.468;5.814;2023-11-21T03:19:54;150.43;;;31.23;;
60243;SDS011;46106;51.468;5.814;2023-11-21T03:22:19;162.93;;;32.35;;
60243;SDS011;46106;51.468;5.814;2023-11-21T03:24:45;189.38;;;32.13;;
60243;SDS011;46106;51.468;5.814;2023-11-21T03:27:10;201.68;;;33.50;;
60243;SDS011;46106;51.468;5.814;2023-11-21T03:29:37;140.40;;;32.38;;
60243;SDS011;46106;51.468;5.814;2023-11-21T03:32:02;159.15;;;34.83;;
60243;SDS011;46106;51.468;5.814;2023-11-21T03:34:28;158.35;;;35.47;;
60243;SDS011;46106;51.468;5.814;2023-11-21T03:36:54;155.57;;;35.05;;
60243;SDS011;46106;51.468;5.814;2023-11-21T03:39:20;172.77;;;35.15;;
60243;SDS011;46106;51.468;5.814;2023-11-21T03:41:47;185.60;;;32.88;;
60243;SDS011;46106;51.468;5.814;2023-11-21T03:44:13;153.60;;;33.28;;
60243;SDS011;46106;51.468;5.814;2023-11-21T03:46:38;133.50;;;32.83;;
60243;SDS011;46106;51.468;5.814;2023-11-21T03:49:05;121.57;;;32.55;;
60243;SDS011;46106;51.468;5.814;2023-11-21T03:51:32;161.50;;;32.95;;
60243;SDS011;46106;51.468;5.814;2023-11-21T03:53:59;147.27;;;33.35;;
60243;SDS011;46106;51.468;5.814;2023-11-21T03:56:24;242.48;;;34.35;;
60243;SDS011;46106;51.468;5.814;2023-11-21T03:58:51;201.73;;;33.95;;
60243;SDS011;46106;51.468;5.814;2023-11-21T04:01:19;212.20;;;34.63;;
60243;SDS011;46106;51.468;5.814;2023-11-21T04:03:46;196.23;;;33.83;;
60243;SDS011;46106;51.468;5.814;2023-11-21T04:06:12;221.80;;;32.95;;
60243;SDS011;46106;51.468;5.814;2023-11-21T04:08:37;234.35;;;31.17;;
60243;SDS011;46106;51.468;5.814;2023-11-21T04:11:03;141.23;;;29.88;;
60243;SDS011;46106;51.468;5.814;2023-11-21T04:13:30;187.95;;;33.03;;
60243;SDS011;46106;51.468;5.814;2023-11-21T04:15:56;187.85;;;31.98;;
60243;SDS011;46106;51.468;5.814;2023-11-21T04:18:22;176.18;;;30.83;;
60243;SDS011;46106;51.468;5.814;2023-11-21T04:20:48;174.90;;;33.55;;
60243;SDS011;46106;51.468;5.814;2023-11-21T04:23:14;207.43;;;32.03;;
60243;SDS011;46106;51.468;5.814;2023-11-21T04:25:40;230.48;;;34.00;;
60243;SDS011;46106;51.468;5.814;2023-11-21T04:28:05;164.52;;;32.22;;
60243;SDS011;46106;51.468;5.814;2023-11-21T04:30:31;195.70;;;31.75;;
60243;SDS011;46106;51.468;5.814;2023-11-21T04:32:57;201.15;;;35.05;;
60243;SDS011;46106;51.468;5.814;2023-11-21T04:35:23;147.50;;;33.47;;
60243;SDS011;46106;51.468;5.814;2023-11-21T04:37:48;203.25;;;34.00;;
60243;SDS011;46106;51.468;5.814;2023-11-21T04:40:16;195.65;;;34.22;;
60243;SDS011;46106;51.468;5.814;2023-11-21T04:42:42;184.10;;;34.60;;
60243;SDS011;46106;51.468;5.814;2023-11-21T04:45:08;154.48;;;33.08;;
60243;SDS011;46106;51.468;5.814;2023-11-21T04:47:34;201.38;;;36.45;;
60243;SDS011;46106;51.468;5.814;2023-11-21T04:50:01;142.07;;;31.40;;
60243;SDS011;46106;51.468;5.814;2023-11-21T04:52:28;131.77;;;32.50;;
60243;SDS011;46106;51.468;5.814;2023-11-21T04:54:53;176.98;;;33.97;;
60243;SDS011;46106;51.468;5.814;2023-11-21T04:57:19;197.20;;;34.45;;
60243;SDS011;46106;51.468;5.814;2023-11-21T04:59:48;159.93;;;32.00;;
60243;SDS011;46106;51.468;5.814;2023-11-21T05:02:14;172.73;;;33.13;;
60243;SDS011;46106;51.468;5.814;2023-11-21T05:04:40;199.95;;;34.22;;
60243;SDS011;46106;51.468;5.814;2023-11-21T05:07:07;159.65;;;32.42;;
60243;SDS011;46106;51.468;5.814;2023-11-21T05:09:34;154.00;;;32.17;;
60243;SDS011;46106;51.468;5.814;2023-11-21T05:12:01;130.55;;;32.33;;
60243;SDS011;46106;51.468;5.814;2023-11-21T05:14:27;201.85;;;33.60;;
60243;SDS011;46106;51.468;5.814;2023-11-21T05:16:52;157.68;;;31.40;;
60243;SDS011;46106;51.468;5.814;2023-11-21T05:19:17;155.70;;;32.90;;
60243;SDS011;46106;51.468;5.814;2023-11-21T05:21:43;174.93;;;33.38;;
60243;SDS011;46106;51.468;5.814;2023-11-21T05:24:08;194.55;;;34.15;;
60243;SDS011;46106;51.468;5.814;2023-11-21T05:26:35;129.00;;;32.67;;
60243;SDS011;46106;51.468;5.814;2023-11-21T05:29:00;199.20;;;35.67;;
60243;SDS011;46106;51.468;5.814;2023-11-21T05:31:26;137.75;;;32.00;;
60243;SDS011;46106;51.468;5.814;2023-11-21T05:33:52;137.88;;;32.30;;
60243;SDS011;46106;51.468;5.814;2023-11-21T05:36:18;131.63;;;31.48;;
60243;SDS011;46106;51.468;5.814;2023-11-21T05:38:46;135.68;;;31.38;;
60243;SDS011;46106;51.468;5.814;2023-11-21T05:41:11;150.98;;;31.50;;
60243;SDS011;46106;51.468;5.814;2023-11-21T05:43:38;138.10;;;32.15;;
60243;SDS011;46106;51.468;5.814;2023-11-21T05:46:04;141.00;;;34.47;;
60243;SDS011;46106;51.468;5.814;2023-11-21T05:48:32;95.68;;;30.95;;
60243;SDS011;46106;51.468;5.814;2023-11-21T05:50:57;101.70;;;32.05;;
60243;SDS011;46106;51.468;5.814;2023-11-21T05:53:25;91.82;;;31.02;;
60243;SDS011;46106;51.468;5.814;2023-11-21T05:55:50;96.70;;;30.23;;
60243;SDS011;46106;51.468;5.814;2023-11-21T05:58:16;77.72;;;28.67;;
60243;SDS011;46106;51.468;5.814;2023-11-21T06:00:41;75.70;;;28.35;;
60243;SDS011;46106;51.468;5.814;2023-11-21T06:03:07;87.82;;;28.95;;
60243;SDS011;46106;51.468;5.814;2023-11-21T06:05:33;75.20;;;27.70;;
60243;SDS011;46106;51.468;5.814;2023-11-21T06:07:58;77.55;;;27.80;;
60243;SDS011;46106;51.468;5.814;2023-11-21T06:10:24;63.55;;;25.48;;
60243;SDS011;46106;51.468;5.814;2023-11-21T06:12:50;78.90;;;27.88;;
60243;SDS011;46106;51.468;5.814;2023-11-21T06:15:16;75.70;;;28.10;;
60243;SDS011;46106;51.468;5.814;2023-11-21T06:17:44;96.65;;;30.75;;
60243;SDS011;46106;51.468;5.814;2023-11-21T06:20:14;86.18;;;28.73;;
60243;SDS011;46106;51.468;5.814;2023-11-21T06:22:43;79.72;;;26.23;;
60243;SDS011;46106;51.468;5.814;2023-11-21T06:25:11;72.40;;;28.17;;
60243;SDS011;46106;51.468;5.814;2023-11-21T06:27:41;63.42;;;25.67;;
60243;SDS011;46106;51.468;5.814;2023-11-21T06:30:09;61.42;;;25.08;;
60243;SDS011;46106;51.468;5.814;2023-11-21T06:32:36;76.28;;;25.67;;
60243;SDS011;46106;51.468;5.814;2023-11-21T06:35:03;66.13;;;27.08;;
60243;SDS011;46106;51.468;5.814;2023-11-21T06:37:29;67.20;;;26.20;;
60243;SDS011;46106;51.468;5.814;2023-11-21T06:39:57;66.20;;;26.20;;
60243;SDS011;46106;51.468;5.814;2023-11-21T06:42:24;69.20;;;26.55;;
60243;SDS011;46106;51.468;5.814;2023-11-21T06:44:50;70.78;;;26.65;;
60243;SDS011;46106;51.468;5.814;2023-11-21T06:47:19;71.22;;;26.38;;
60243;SDS011;46106;51.468;5.814;2023-11-21T06:49:54;58.45;;;26.63;;
60243;SDS011;46106;51.468;5.814;2023-11-21T06:52:19;68.32;;;27.13;;
60243;SDS011;46106;51.468;5.814;2023-11-21T06:54:45;86.28;;;28.15;;
60243;SDS011;46106;51.468;5.814;2023-11-21T06:57:12;69.43;;;26.58;;
60243;SDS011;46106;51.468;5.814;2023-11-21T06:59:38;77.22;;;28.63;;
60243;SDS011;46106;51.468;5.814;2023-11-21T07:02:03;78.50;;;28.65;;
60243;SDS011;46106;51.468;5.814;2023-11-21T07:04:32;85.10;;;28.88;;
60243;SDS011;46106;51.468;5.814;2023-11-21T07:06:58;82.78;;;28.17;;
60243;SDS011;46106;51.468;5.814;2023-11-21T07:09:23;81.50;;;29.92;;
60243;SDS011;46106;51.468;5.814;2023-11-21T07:11:50;85.50;;;29.42;;
60243;SDS011;46106;51.468;5.814;2023-11-21T07:14:17;86.18;;;28.25;;
60243;SDS011;46106;51.468;5.814;2023-11-21T07:16:44;86.43;;;28.77;;
60243;SDS011;46106;51.468;5.814;2023-11-21T07:19:10;80.35;;;29.05;;
60243;SDS011;46106;51.468;5.814;2023-11-21T07:21:37;84.25;;;28.98;;
60243;SDS011;46106;51.468;5.814;2023-11-21T07:24:04;87.35;;;29.38;;
60243;SDS011;46106;51.468;5.814;2023-11-21T07:26:31;89.10;;;29.00;;
60243;SDS011;46106;51.468;5.814;2023-11-21T07:28:58;89.05;;;29.67;;
60243;SDS011;46106;51.468;5.814;2023-11-21T07:31:24;101.70;;;30.00;;
60243;SDS011;46106;51.468;5.814;2023-11-21T07:33:49;101.63;;;30.10;;
60243;SDS011;46106;51.468;5.814;2023-11-21T07:36:16;103.95;;;30.55;;
60243;SDS011;46106;51.468;5.814;2023-11-21T07:38:43;87.28;;;29.35;;
60243;SDS011;46106;51.468;5.814;2023-11-21T07:41:09;104.78;;;30.15;;
60243;SDS011;46106;51.468;5.814;2023-11-21T07:43:35;102.60;;;31.20;;
60243;SDS011;46106;51.468;5.814;2023-11-21T07:46:02;117.35;;;32.53;;
60243;SDS011;46106;51.468;5.814;2023-11-21T07:48:29;98.20;;;31.10;;
60243;SDS011;46106;51.468;5.814;2023-11-21T07:50:58;93.88;;;30.27;;
60243;SDS011;46106;51.468;5.814;2023-11-21T07:53:28;104.78;;;29.77;;
60243;SDS011;46106;51.468;5.814;2023-11-21T07:55:55;106.85;;;30.30;;
60243;SDS011;46106;51.468;5.814;2023-11-21T07:58:24;122.75;;;32.05;;
60243;SDS011;46106;51.468;5.814;2023-11-21T08:00:51;118.65;;;32.58;;
60243;SDS011;46106;51.468;5.814;2023-11-21T08:03:17;106.43;;;30.45;;
60243;SDS011;46106;51.468;5.814;2023-11-21T08:05:42;107.38;;;31.60;;
60243;SDS011;46106;51.468;5.814;2023-11-21T08:08:08;92.57;;;28.80;;
60243;SDS011;46106;51.468;5.814;2023-11-21T08:10:33;99.00;;;29.98;;
60243;SDS011;46106;51.468;5.814;2023-11-21T08:13:00;92.05;;;30.58;;
60243;SDS011;46106;51.468;5.814;2023-11-21T08:15:27;123.22;;;30.77;;
60243;SDS011;46106;51.468;5.814;2023-11-21T08:17:54;101.10;;;30.75;;
60243;SDS011;46106;51.468;5.814;2023-11-21T08:20:20;92.60;;;29.48;;
60243;SDS011;46106;51.468;5.814;2023-11-21T08:22:47;83.95;;;28.23;;
60243;SDS011;46106;51.468;5.814;2023-11-21T08:25:13;84.32;;;28.13;;
60243;SDS011;46106;51.468;5.814;2023-11-21T08:27:39;88.55;;;27.73;;
60243;SDS011;46106;51.468;5.814;2023-11-21T08:30:04;88.80;;;27.92;;
60243;SDS011;46106;51.468;5.814;2023-11-21T08:32:30;97.40;;;27.15;;
60243;SDS011;46106;51.468;5.814;2023-11-21T08:34:58;77.35;;;25.95;;
60243;SDS011;46106;51.468;5.814;2023-11-21T08:37:24;81.25;;;26.27;;
60243;SDS011;46106;51.468;5.814;2023-11-21T08:39:50;97.95;;;27.33;;
60243;SDS011;46106;51.468;5.814;2023-11-21T08:42:17;111.43;;;28.27;;
60243;SDS011;46106;51.468;5.814;2023-11-21T08:44:43;82.07;;;25.98;;
60243;SDS011;46106;51.468;5.814;2023-11-21T08:47:08;111.78;;;30.17;;
60243;SDS011;46106;51.468;5.814;2023-11-21T08:49:34;90.47;;;27.75;;
60243;SDS011;46106;51.468;5.814;2023-11-21T08:51:59;87.93;;;27.77;;
60243;SDS011;46106;51.468;5.814;2023-11-21T08:54:25;96.40;;;27.10;;
60243;SDS011;46106;51.468;5.814;2023-11-21T08:56:54;94.32;;;27.13;;
60243;SDS011;46106;51.468;5.814;2023-11-21T08:59:20;106.05;;;27.75;;
60243;SDS011;46106;51.468;5.814;2023-11-21T09:01:46;105.63;;;27.67;;
60243;SDS011;46106;51.468;5.814;2023-11-21T09:04:12;109.28;;;29.65;;
60243;SDS011;46106;51.468;5.814;2023-11-21T09:06:38;93.05;;;26.30;;
60243;SDS011;46106;51.468;5.814;2023-11-21T09:09:05;90.68;;;25.85;;
60243;SDS011;46106;51.468;5.814;2023-11-21T09:11:33;108.15;;;26.58;;
60243;SDS011;46106;51.468;5.814;2023-11-21T09:14:02;85.22;;;25.27;;
60243;SDS011;46106;51.468;5.814;2023-11-21T09:16:30;101.72;;;25.23;;
60243;SDS011;46106;51.468;5.814;2023-11-21T09:18:56;102.25;;;25.67;;
60243;SDS011;46106;51.468;5.814;2023-11-21T09:21:22;113.38;;;26.92;;
60243;SDS011;46106;51.468;5.814;2023-11-21T09:23:48;98.72;;;25.10;;
60243;SDS011;46106;51.468;5.814;2023-11-21T09:26:14;121.28;;;25.13;;
60243;SDS011;46106;51.468;5.814;2023-11-21T09:28:41;102.78;;;24.75;;
60243;SDS011;46106;51.468;5.814;2023-11-21T09:31:12;118.80;;;26.67;;
60243;SDS011;46106;51.468;5.814;2023-11-21T09:33:41;102.13;;;23.58;;
60243;SDS011;46106;51.468;5.814;2023-11-21T09:36:11;96.63;;;24.33;;
60243;SDS011;46106;51.468;5.814;2023-11-21T09:38:38;92.40;;;23.67;;
60243;SDS011;46106;51.468;5.814;2023-11-21T09:41:04;88.47;;;24.35;;
60243;SDS011;46106;51.468;5.814;2023-11-21T09:43:38;85.28;;;25.08;;
60243;SDS011;46106;51.468;5.814;2023-11-21T09:46:04;88.25;;;24.33;;
60243;SDS011;46106;51.468;5.814;2023-11-21T09:48:32;100.32;;;25.13;;
60243;SDS011;46106;51.468;5.814;2023-11-21T09:51:00;87.13;;;23.45;;
60243;SDS011;46106;51.468;5.814;2023-11-21T09:53:29;84.75;;;22.83;;
60243;SDS011;46106;51.468;5.814;2023-11-21T09:55:58;79.00;;;22.05;;
60243;SDS011;46106;51.468;5.814;2023-11-21T09:58:25;80.30;;;22.10;;
60243;SDS011;46106;51.468;5.814;2023-11-21T10:00:55;76.22;;;22.48;;
60243;SDS011;46106;51.468;5.814;2023-11-21T10:03:24;63.33;;;20.58;;
60243;SDS011;46106;51.468;5.814;2023-11-21T10:05:50;78.30;;;20.38;;
60243;SDS011;46106;51.468;5.814;2023-11-21T10:08:18;68.05;;;20.08;;
60243;SDS011;46106;51.468;5.814;2023-11-21T10:10:49;64.68;;;19.85;;
60243;SDS011;46106;51.468;5.814;2023-11-21T10:13:19;71.68;;;20.92;;
60243;SDS011;46106;51.468;5.814;2023-11-21T10:15:49;74.90;;;21.17;;
60243;SDS011;46106;51.468;5.814;2023-11-21T10:18:15;74.40;;;20.73;;
60243;SDS011;46106;51.468;5.814;2023-11-21T10:20:41;61.10;;;18.70;;
60243;SDS011;46106;51.468;5.814;2023-11-21T10:23:08;64.75;;;20.85;;
60243;SDS011;46106;51.468;5.814;2023-11-21T10:25:36;73.82;;;21.02;;
60243;SDS011;46106;51.468;5.814;2023-11-21T10:28:02;80.97;;;21.98;;
60243;SDS011;46106;51.468;5.814;2023-11-21T10:33:02;66.70;;;21.75;;
60243;SDS011;46106;51.468;5.814;2023-11-21T10:38:15;77.35;;;24.08;;
60243;SDS011;46106;51.468;5.814;2023-11-21T10:40:46;89.28;;;24.52;;
60243;SDS011;46106;51.468;5.814;2023-11-21T10:43:12;77.15;;;25.13;;
60243;SDS011;46106;51.468;5.814;2023-11-21T10:45:39;81.50;;;24.42;;
60243;SDS011;46106;51.468;5.814;2023-11-21T10:48:08;78.72;;;23.15;;
60243;SDS011;46106;51.468;5.814;2023-11-21T10:50:38;82.63;;;23.83;;
60243;SDS011;46106;51.468;5.814;2023-11-21T10:53:04;73.50;;;24.13;;
60243;SDS011;46106;51.468;5.814;2023-11-21T10:55:31;80.65;;;23.98;;
60243;SDS011;46106;51.468;5.814;2023-11-21T10:58:02;78.55;;;25.10;;
60243;SDS011;46106;51.468;5.814;2023-11-21T11:00:29;81.85;;;24.77;;
60243;SDS011;46106;51.468;5.814;2023-11-21T11:02:55;93.70;;;26.17;;
60243;SDS011;46106;51.468;5.814;2023-11-21T11:05:24;101.85;;;27.67;;
60243;SDS011;46106;51.468;5.814;2023-11-21T11:08:04;91.63;;;25.75;;
60243;SDS011;46106;51.468;5.814;2023-11-21T11:10:32;99.78;;;27.67;;
60243;SDS011;46106;51.468;5.814;2023-11-21T11:12:58;91.20;;;27.55;;
60243;SDS011;46106;51.468;5.814;2023-11-21T11:15:25;102.07;;;27.02;;
60243;SDS011;46106;51.468;5.814;2023-11-21T11:17:51;95.90;;;26.90;;
60243;SDS011;46106;51.468;5.814;2023-11-21T11:20:27;101.22;;;28.38;;
60243;SDS011;46106;51.468;5.814;2023-11-21T11:23:04;101.53;;;28.95;;
60243;SDS011;46106;51.468;5.814;2023-11-21T11:28:44;97.05;;;27.60;;
60243;SDS011;46106;51.468;5.814;2023-11-21T11:31:39;91.25;;;26.73;;
60243;SDS011;46106;51.468;5.814;2023-11-21T11:34:35;95.25;;;28.67;;
60243;SDS011;46106;51.468;5.814;2023-11-21T11:37:16;102.78;;;29.13;;
60243;SDS011;46106;51.468;5.814;2023-11-21T11:39:43;86.32;;;28.75;;
60243;SDS011;46106;51.468;5.814;2023-11-21T11:42:11;88.35;;;27.08;;
60243;SDS011;46106;51.468;5.814;2023-11-21T11:47:29;101.53;;;29.13;;
60243;SDS011;46106;51.468;5.814;2023-11-21T11:50:03;85.88;;;28.67;;
60243;SDS011;46106;51.468;5.814;2023-11-21T11:53:13;90.00;;;27.63;;
60243;SDS011;46106;51.468;5.814;2023-11-21T11:55:40;81.03;;;27.40;;
60243;SDS011;46106;51.468;5.814;2023-11-21T11:58:07;89.53;;;28.48;;
60243;SDS011;46106;51.468;5.814;2023-11-21T12:00:37;92.72;;;28.15;;
60243;SDS011;46106;51.468;5.814;2023-11-21T12:03:08;96.10;;;29.55;;
60243;SDS011;46106;51.468;5.814;2023-11-21T12:05:36;87.82;;;29.00;;
60243;SDS011;46106;51.468;5.814;2023-11-21T12:08:07;103.32;;;31.50;;
60243;SDS011;46106;51.468;5.814;2023-11-21T12:10:34;88.50;;;29.30;;
60243;SDS011;46106;51.468;5.814;2023-11-21T12:13:09;90.55;;;27.83;;
60243;SDS011;46106;51.468;5.814;2023-11-21T12:15:38;89.30;;;29.25;;
60243;SDS011;46106;51.468;5.814;2023-11-21T12:18:06;96.97;;;30.45;;
60243;SDS011;46106;51.468;5.814;2023-11-21T12:20:36;92.93;;;31.58;;
60243;SDS011;46106;51.468;5.814;2023-11-21T12:23:11;97.88;;;30.38;;
60243;SDS011;46106;51.468;5.814;2023-11-21T12:25:45;94.70;;;30.08;;
60243;SDS011;46106;51.468;5.814;2023-11-21T12:28:12;86.30;;;30.17;;
60243;SDS011;46106;51.468;5.814;2023-11-21T12:30:37;84.28;;;28.20;;
60243;SDS011;46106;51.468;5.814;2023-11-21T12:33:03;88.43;;;30.25;;
60243;SDS011;46106;51.468;5.814;2023-11-21T12:35:33;89.57;;;29.70;;
60243;SDS011;46106;51.468;5.814;2023-11-21T12:38:02;94.03;;;29.85;;
60243;SDS011;46106;51.468;5.814;2023-11-21T12:40:28;80.30;;;28.05;;
60243;SDS011;46106;51.468;5.814;2023-11-21T12:42:57;77.35;;;27.40;;
60243;SDS011;46106;51.468;5.814;2023-11-21T12:45:27;79.18;;;27.50;;
60243;SDS011;46106;51.468;5.814;2023-11-21T12:47:59;75.20;;;28.30;;
60243;SDS011;46106;51.468;5.814;2023-11-21T12:50:32;73.00;;;26.83;;
60243;SDS011;46106;51.468;5.814;2023-11-21T12:52:59;82.45;;;28.92;;
60243;SDS011;46106;51.468;5.814;2023-11-21T12:55:32;77.57;;;28.45;;
60243;SDS011;46106;51.468;5.814;2023-11-21T12:58:01;76.97;;;27.27;;
60243;SDS011;46106;51.468;5.814;2023-11-21T13:03:05;84.53;;;29.33;;
60243;SDS011;46106;51.468;5.814;2023-11-21T13:05:33;82.03;;;28.02;;
60243;SDS011;46106;51.468;5.814;2023-11-21T13:08:01;77.20;;;26.83;;
60243;SDS011;46106;51.468;5.814;2023-11-21T13:10:29;88.80;;;30.02;;
60243;SDS011;46106;51.468;5.814;2023-11-21T13:13:00;79.38;;;28.30;;
60243;SDS011;46106;51.468;5.814;2023-11-21T13:15:30;76.72;;;29.73;;
60243;SDS011;46106;51.468;5.814;2023-11-21T13:18:00;85.65;;;29.75;;
60243;SDS011;46106;51.468;5.814;2023-11-21T13:20:26;94.28;;;31.38;;
60243;SDS011;46106;51.468;5.814;2023-11-21T13:22:52;95.18;;;30.75;;
60243;SDS011;46106;51.468;5.814;2023-11-21T13:25:26;93.65;;;30.55;;
60243;SDS011;46106;51.468;5.814;2023-11-21T13:27:55;87.28;;;31.33;;
60243;SDS011;46106;51.468;5.814;2023-11-21T13:30:22;89.65;;;30.08;;
60243;SDS011;46106;51.468;5.814;2023-11-21T13:32:55;84.13;;;28.73;;
60243;SDS011;46106;51.468;5.814;2023-11-21T13:35:27;86.55;;;30.40;;
60243;SDS011;46106;51.468;5.814;2023-11-21T13:38:07;84.22;;;28.73;;
60243;SDS011;46106;51.468;5.814;2023-11-21T13:40:34;73.05;;;27.73;;
60243;SDS011;46106;51.468;5.814;2023-11-21T13:43:05;80.03;;;29.23;;
60243;SDS011;46106;51.468;5.814;2023-11-21T13:45:35;86.85;;;29.40;;
60243;SDS011;46106;51.468;5.814;2023-11-21T13:48:01;91.60;;;28.13;;
60243;SDS011;46106;51.468;5.814;2023-11-21T13:50:27;90.18;;;28.98;;
60243;SDS011;46106;51.468;5.814;2023-11-21T13:53:00;85.30;;;29.65;;
60243;SDS011;46106;51.468;5.814;2023-11-21T13:55:35;103.80;;;31.80;;
60243;SDS011;46106;51.468;5.814;2023-11-21T13:58:02;92.05;;;31.40;;
60243;SDS011;46106;51.468;5.814;2023-11-21T14:00:29;88.63;;;29.48;;
60243;SDS011;46106;51.468;5.814;2023-11-21T14:03:14;95.78;;;36.08;;
60243;SDS011;46106;51.468;5.814;2023-11-21T14:05:48;99.85;;;32.42;;
60243;SDS011;46106;51.468;5.814;2023-11-21T14:08:20;88.95;;;29.15;;
60243;SDS011;46106;51.468;5.814;2023-11-21T14:10:49;89.53;;;30.33;;
60243;SDS011;46106;51.468;5.814;2023-11-21T14:13:18;81.77;;;26.17;;
60243;SDS011;46106;51.468;5.814;2023-11-21T14:15:48;81.10;;;25.42;;
60243;SDS011;46106;51.468;5.814;2023-11-21T14:18:16;84.40;;;26.45;;
60243;SDS011;46106;51.468;5.814;2023-11-21T14:20:46;79.07;;;27.60;;
60243;SDS011;46106;51.468;5.814;2023-11-21T14:23:11;86.50;;;28.05;;
60243;SDS011;46106;51.468;5.814;2023-11-21T14:25:37;84.15;;;26.35;;
60243;SDS011;46106;51.468;5.814;2023-11-21T14:28:06;73.82;;;25.55;;
60243;SDS011;46106;51.468;5.814;2023-11-21T14:30:37;81.20;;;26.30;;
60243;SDS011;46106;51.468;5.814;2023-11-21T14:33:04;71.63;;;24.15;;
60243;SDS011;46106;51.468;5.814;2023-11-21T14:35:31;76.50;;;25.98;;